sensor_id;sensor_type;location;lat;lon;timestamp;P1;durP1;ratioP1;P2;durP2;ratioP2
23543;SDS011;11950;51.230;4.012;2022-12-24T00:02:23;38.38;;;8.80;;
23543;SDS011;11950;51.230;4.012;2022-12-24T00:04:49;33.83;;;8.57;;
23543;SDS011;11950;51.230;4.012;2022-12-24T00:07:15;36.08;;;9.30;;
23543;SDS011;11950;51.230;4.012;2022-12-24T00:09:42;41.63;;;8.70;;
23543;SDS011;11950;51.230;4.012;2022-12-24T00:12:08;34.22;;;8.75;;
23543;SDS011;11950;51.230;4.012;2022-12-24T00:14:35;34.33;;;8.30;;
23543;SDS011;11950;51.230;4.012;2022-12-24T00:17:01;38.03;;;7.85;;
23543;SDS011;11950;51.230;4.012;2022-12-24T00:19:28;31.27;;;5.70;;
23543;SDS011;11950;51.230;4.012;2022-12-24T00:21:54;30.60;;;6.40;;
23543;SDS011;11950;51.230;4.012;2022-12-24T00:24:20;25.52;;;5.47;;
23543;SDS011;11950;51.230;4.012;2022-12-24T00:26:46;33.78;;;5.55;;
23543;SDS011;11950;51.230;4.012;2022-12-24T00:29:13;33.97;;;5.20;;
23543;SDS011;11950;51.230;4.012;2022-12-24T00:31:39;30.95;;;5.28;;
23543;SDS011;11950;51.230;4.012;2022-12-24T00:34:05;27.42;;;5.45;;
23543;SDS011;11950;51.230;4.012;2022-12-24T00:36:33;30.48;;;5.82;;
23543;SDS011;11950;51.230;4.012;2022-12-24T00:38:59;35.75;;;5.03;;
23543;SDS011;11950;51.230;4.012;2022-12-24T00:41:25;29.88;;;4.43;;
23543;SDS011;11950;51.230;4.012;2022-12-24T00:43:58;30.90;;;5.07;;
23543;SDS011;11950;51.230;4.012;2022-12-24T00:46:35;42.53;;;5.15;;
23543;SDS011;11950;51.230;4.012;2022-12-24T00:49:03;33.22;;;4.90;;
23543;SDS011;11950;51.230;4.012;2022-12-24T00:51:30;31.00;;;5.70;;
23543;SDS011;11950;51.230;4.012;2022-12-24T00:53:57;28.77;;;4.65;;
23543;SDS011;11950;51.230;4.012;2022-12-24T00:56:24;29.75;;;5.45;;
23543;SDS011;11950;51.230;4.012;2022-12-24T00:58:50;32.47;;;4.20;;
23543;SDS011;11950;51.230;4.012;2022-12-24T01:01:18;27.08;;;4.13;;
23543;SDS011;11950;51.230;4.012;2022-12-24T01:03:44;32.95;;;4.45;;
23543;SDS011;11950;51.230;4.012;2022-12-24T01:06:12;28.52;;;4.88;;
23543;SDS011;11950;51.230;4.012;2022-12-24T01:08:41;24.13;;;3.95;;
23543;SDS011;11950;51.230;4.012;2022-12-24T01:11:08;27.67;;;4.18;;
23543;SDS011;11950;51.230;4.012;2022-12-24T01:13:35;29.17;;;4.45;;
23543;SDS011;11950;51.230;4.012;2022-12-24T01:16:02;22.08;;;4.50;;
23543;SDS011;11950;51.230;4.012;2022-12-24T01:18:29;33.33;;;3.58;;
23543;SDS011;11950;51.230;4.012;2022-12-24T01:21:01;28.17;;;4.13;;
23543;SDS011;11950;51.230;4.012;2022-12-24T01:23:28;23.13;;;3.83;;
23543;SDS011;11950;51.230;4.012;2022-12-24T01:25:59;22.92;;;4.30;;
23543;SDS011;11950;51.230;4.012;2022-12-24T01:28:27;21.58;;;4.47;;
23543;SDS011;11950;51.230;4.012;2022-12-24T01:30:53;26.92;;;3.70;;
23543;SDS011;11950;51.230;4.012;2022-12-24T01:33:20;22.95;;;3.55;;
23543;SDS011;11950;51.230;4.012;2022-12-24T01:35:46;22.17;;;3.08;;
23543;SDS011;11950;51.230;4.012;2022-12-24T01:38:13;15.43;;;2.95;;
23543;SDS011;11950;51.230;4.012;2022-12-24T01:40:40;22.70;;;3.38;;
23543;SDS011;11950;51.230;4.012;2022-12-24T01:43:27;20.98;;;2.80;;
23543;SDS011;11950;51.230;4.012;2022-12-24T01:45:56;21.83;;;3.70;;
23543;SDS011;11950;51.230;4.012;2022-12-24T01:51:03;20.42;;;3.20;;
23543;SDS011;11950;51.230;4.012;2022-12-24T01:53:51;18.08;;;2.97;;
23543;SDS011;11950;51.230;4.012;2022-12-24T01:56:22;20.05;;;2.88;;
23543;SDS011;11950;51.230;4.012;2022-12-24T01:58:51;23.08;;;3.70;;
23543;SDS011;11950;51.230;4.012;2022-12-24T02:01:22;16.88;;;4.53;;
23543;SDS011;11950;51.230;4.012;2022-12-24T02:03:48;18.33;;;4.57;;
23543;SDS011;11950;51.230;4.012;2022-12-24T02:06:15;20.42;;;5.32;;
23543;SDS011;11950;51.230;4.012;2022-12-24T02:08:42;22.10;;;6.78;;
23543;SDS011;11950;51.230;4.012;2022-12-24T02:11:28;29.00;;;7.00;;
23543;SDS011;11950;51.230;4.012;2022-12-24T02:13:56;27.60;;;6.35;;
23543;SDS011;11950;51.230;4.012;2022-12-24T02:22:42;23.50;;;6.55;;
23543;SDS011;11950;51.230;4.012;2022-12-24T02:25:28;23.38;;;4.63;;
23543;SDS011;11950;51.230;4.012;2022-12-24T02:28:11;22.83;;;4.47;;
23543;SDS011;11950;51.230;4.012;2022-12-24T02:30:51;20.25;;;4.22;;
23543;SDS011;11950;51.230;4.012;2022-12-24T02:33:47;22.63;;;3.47;;
23543;SDS011;11950;51.230;4.012;2022-12-24T02:36:31;24.88;;;3.45;;
23543;SDS011;11950;51.230;4.012;2022-12-24T02:39:03;21.92;;;3.30;;
23543;SDS011;11950;51.230;4.012;2022-12-24T02:41:33;27.73;;;3.63;;
23543;SDS011;11950;51.230;4.012;2022-12-24T02:44:23;31.75;;;4.80;;
23543;SDS011;11950;51.230;4.012;2022-12-24T02:46:52;22.55;;;3.65;;
23543;SDS011;11950;51.230;4.012;2022-12-24T02:49:20;25.25;;;4.10;;
23543;SDS011;11950;51.230;4.012;2022-12-24T02:51:46;27.05;;;4.90;;
23543;SDS011;11950;51.230;4.012;2022-12-24T02:54:12;33.47;;;3.95;;
23543;SDS011;11950;51.230;4.012;2022-12-24T03:07:17;27.17;;;3.60;;
23543;SDS011;11950;51.230;4.012;2022-12-24T03:10:12;22.17;;;4.72;;
23543;SDS011;11950;51.230;4.012;2022-12-24T03:12:44;30.45;;;4.25;;
23543;SDS011;11950;51.230;4.012;2022-12-24T03:15:15;27.85;;;4.93;;
23543;SDS011;11950;51.230;4.012;2022-12-24T03:17:45;19.50;;;3.65;;
23543;SDS011;11950;51.230;4.012;2022-12-24T03:20:14;25.60;;;4.15;;
23543;SDS011;11950;51.230;4.012;2022-12-24T03:22:51;25.83;;;3.63;;
23543;SDS011;11950;51.230;4.012;2022-12-24T03:25:17;26.38;;;3.90;;
23543;SDS011;11950;51.230;4.012;2022-12-24T03:27:47;25.77;;;4.13;;
23543;SDS011;11950;51.230;4.012;2022-12-24T03:30:14;23.58;;;3.28;;
23543;SDS011;11950;51.230;4.012;2022-12-24T03:32:42;21.58;;;3.20;;
23543;SDS011;11950;51.230;4.012;2022-12-24T03:35:09;21.25;;;2.95;;
23543;SDS011;11950;51.230;4.012;2022-12-24T03:37:36;19.80;;;3.20;;
23543;SDS011;11950;51.230;4.012;2022-12-24T03:40:03;19.33;;;3.63;;
23543;SDS011;11950;51.230;4.012;2022-12-24T03:42:30;21.70;;;3.25;;
23543;SDS011;11950;51.230;4.012;2022-12-24T03:44:56;19.90;;;3.25;;
23543;SDS011;11950;51.230;4.012;2022-12-24T03:47:23;19.77;;;3.15;;
23543;SDS011;11950;51.230;4.012;2022-12-24T03:49:49;24.35;;;3.63;;
23543;SDS011;11950;51.230;4.012;2022-12-24T03:52:15;21.50;;;3.22;;
23543;SDS011;11950;51.230;4.012;2022-12-24T03:54:41;23.42;;;3.60;;
23543;SDS011;11950;51.230;4.012;2022-12-24T03:57:08;16.42;;;3.10;;
23543;SDS011;11950;51.230;4.012;2022-12-24T03:59:34;23.42;;;3.40;;
23543;SDS011;11950;51.230;4.012;2022-12-24T04:02:00;21.35;;;3.25;;
23543;SDS011;11950;51.230;4.012;2022-12-24T04:04:26;20.83;;;2.88;;
23543;SDS011;11950;51.230;4.012;2022-12-24T04:06:53;19.60;;;3.15;;
23543;SDS011;11950;51.230;4.012;2022-12-24T04:09:19;24.63;;;3.10;;
23543;SDS011;11950;51.230;4.012;2022-12-24T04:11:45;19.70;;;2.40;;
23543;SDS011;11950;51.230;4.012;2022-12-24T04:14:11;15.82;;;2.97;;
23543;SDS011;11950;51.230;4.012;2022-12-24T04:16:38;27.23;;;2.95;;
23543;SDS011;11950;51.230;4.012;2022-12-24T04:19:04;23.42;;;3.13;;
23543;SDS011;11950;51.230;4.012;2022-12-24T04:21:30;20.85;;;3.22;;
23543;SDS011;11950;51.230;4.012;2022-12-24T04:23:56;22.42;;;3.17;;
23543;SDS011;11950;51.230;4.012;2022-12-24T04:26:23;23.83;;;3.20;;
23543;SDS011;11950;51.230;4.012;2022-12-24T04:28:49;23.42;;;3.40;;
23543;SDS011;11950;51.230;4.012;2022-12-24T04:31:15;21.77;;;3.35;;
23543;SDS011;11950;51.230;4.012;2022-12-24T04:33:42;18.92;;;3.05;;
23543;SDS011;11950;51.230;4.012;2022-12-24T04:36:11;18.13;;;2.60;;
23543;SDS011;11950;51.230;4.012;2022-12-24T04:38:39;18.63;;;2.75;;
23543;SDS011;11950;51.230;4.012;2022-12-24T04:41:07;29.42;;;5.50;;
23543;SDS011;11950;51.230;4.012;2022-12-24T04:43:38;22.48;;;3.22;;
23543;SDS011;11950;51.230;4.012;2022-12-24T04:46:23;24.42;;;3.42;;
23543;SDS011;11950;51.230;4.012;2022-12-24T04:48:52;18.80;;;2.95;;
23543;SDS011;11950;51.230;4.012;2022-12-24T04:51:19;27.48;;;3.78;;
23543;SDS011;11950;51.230;4.012;2022-12-24T04:53:47;29.40;;;4.65;;
23543;SDS011;11950;51.230;4.012;2022-12-24T04:56:17;24.13;;;3.50;;
23543;SDS011;11950;51.230;4.012;2022-12-24T04:58:46;23.70;;;3.70;;
23543;SDS011;11950;51.230;4.012;2022-12-24T05:01:20;26.80;;;4.05;;
23543;SDS011;11950;51.230;4.012;2022-12-24T05:03:52;26.80;;;4.10;;
23543;SDS011;11950;51.230;4.012;2022-12-24T05:06:20;23.25;;;3.90;;
23543;SDS011;11950;51.230;4.012;2022-12-24T05:08:48;31.67;;;3.75;;
23543;SDS011;11950;51.230;4.012;2022-12-24T05:11:15;23.17;;;2.92;;
23543;SDS011;11950;51.230;4.012;2022-12-24T05:13:42;28.05;;;3.47;;
23543;SDS011;11950;51.230;4.012;2022-12-24T05:16:09;23.48;;;3.88;;
23543;SDS011;11950;51.230;4.012;2022-12-24T05:18:36;22.70;;;3.40;;
23543;SDS011;11950;51.230;4.012;2022-12-24T05:21:07;20.42;;;3.30;;
23543;SDS011;11950;51.230;4.012;2022-12-24T05:23:36;28.65;;;3.67;;
23543;SDS011;11950;51.230;4.012;2022-12-24T05:29:00;28.33;;;4.00;;
23543;SDS011;11950;51.230;4.012;2022-12-24T05:31:28;26.15;;;3.58;;
23543;SDS011;11950;51.230;4.012;2022-12-24T05:33:56;32.08;;;4.93;;
23543;SDS011;11950;51.230;4.012;2022-12-24T05:36:22;25.67;;;4.50;;
23543;SDS011;11950;51.230;4.012;2022-12-24T05:38:49;29.83;;;4.30;;
23543;SDS011;11950;51.230;4.012;2022-12-24T05:41:16;29.73;;;4.55;;
23543;SDS011;11950;51.230;4.012;2022-12-24T05:43:43;22.50;;;3.15;;
23543;SDS011;11950;51.230;4.012;2022-12-24T05:46:10;27.25;;;4.03;;
23543;SDS011;11950;51.230;4.012;2022-12-24T05:48:38;24.70;;;3.25;;
23543;SDS011;11950;51.230;4.012;2022-12-24T05:51:08;29.08;;;3.78;;
23543;SDS011;11950;51.230;4.012;2022-12-24T05:53:36;32.53;;;4.05;;
23543;SDS011;11950;51.230;4.012;2022-12-24T05:58:31;22.23;;;3.53;;
23543;SDS011;11950;51.230;4.012;2022-12-24T06:00:59;31.58;;;4.40;;
23543;SDS011;11950;51.230;4.012;2022-12-24T06:03:26;28.27;;;4.47;;
23543;SDS011;11950;51.230;4.012;2022-12-24T06:06:04;22.05;;;3.92;;
23543;SDS011;11950;51.230;4.012;2022-12-24T06:08:33;27.85;;;3.95;;
23543;SDS011;11950;51.230;4.012;2022-12-24T06:11:01;27.33;;;4.80;;
23543;SDS011;11950;51.230;4.012;2022-12-24T06:13:30;21.20;;;3.55;;
23543;SDS011;11950;51.230;4.012;2022-12-24T06:15:57;25.40;;;4.32;;
23543;SDS011;11950;51.230;4.012;2022-12-24T06:18:25;24.95;;;3.65;;
23543;SDS011;11950;51.230;4.012;2022-12-24T06:20:53;29.88;;;4.10;;
23543;SDS011;11950;51.230;4.012;2022-12-24T06:23:21;28.52;;;3.30;;
23543;SDS011;11950;51.230;4.012;2022-12-24T06:25:48;27.63;;;4.28;;
23543;SDS011;11950;51.230;4.012;2022-12-24T06:28:16;23.23;;;3.33;;
23543;SDS011;11950;51.230;4.012;2022-12-24T06:30:46;21.85;;;3.35;;
23543;SDS011;11950;51.230;4.012;2022-12-24T06:33:14;25.92;;;4.18;;
23543;SDS011;11950;51.230;4.012;2022-12-24T06:35:43;23.60;;;3.55;;
23543;SDS011;11950;51.230;4.012;2022-12-24T06:38:10;20.33;;;3.53;;
23543;SDS011;11950;51.230;4.012;2022-12-24T06:40:38;21.13;;;3.58;;
23543;SDS011;11950;51.230;4.012;2022-12-24T06:43:04;21.95;;;3.33;;
23543;SDS011;11950;51.230;4.012;2022-12-24T06:45:30;25.05;;;3.67;;
23543;SDS011;11950;51.230;4.012;2022-12-24T06:47:57;23.42;;;3.45;;
23543;SDS011;11950;51.230;4.012;2022-12-24T06:50:24;26.13;;;3.95;;
23543;SDS011;11950;51.230;4.012;2022-12-24T06:52:50;30.70;;;4.30;;
23543;SDS011;11950;51.230;4.012;2022-12-24T06:55:17;21.52;;;4.32;;
23543;SDS011;11950;51.230;4.012;2022-12-24T06:57:43;21.45;;;3.78;;
23543;SDS011;11950;51.230;4.012;2022-12-24T07:00:09;30.95;;;4.00;;
23543;SDS011;11950;51.230;4.012;2022-12-24T07:02:40;22.42;;;3.20;;
23543;SDS011;11950;51.230;4.012;2022-12-24T07:05:08;22.85;;;3.40;;
23543;SDS011;11950;51.230;4.012;2022-12-24T07:07:36;20.85;;;3.28;;
23543;SDS011;11950;51.230;4.012;2022-12-24T07:10:03;25.88;;;4.47;;
23543;SDS011;11950;51.230;4.012;2022-12-24T07:12:30;24.60;;;3.47;;
23543;SDS011;11950;51.230;4.012;2022-12-24T07:14:57;25.20;;;3.70;;
23543;SDS011;11950;51.230;4.012;2022-12-24T07:17:23;27.33;;;4.10;;
23543;SDS011;11950;51.230;4.012;2022-12-24T07:19:50;25.90;;;4.22;;
23543;SDS011;11950;51.230;4.012;2022-12-24T07:22:16;21.38;;;4.32;;
23543;SDS011;11950;51.230;4.012;2022-12-24T07:24:42;23.48;;;3.78;;
23543;SDS011;11950;51.230;4.012;2022-12-24T07:27:09;31.05;;;4.35;;
23543;SDS011;11950;51.230;4.012;2022-12-24T07:29:35;26.85;;;4.10;;
23543;SDS011;11950;51.230;4.012;2022-12-24T07:32:01;20.35;;;4.05;;
23543;SDS011;11950;51.230;4.012;2022-12-24T07:34:27;30.77;;;4.40;;
23543;SDS011;11950;51.230;4.012;2022-12-24T07:36:54;27.00;;;4.35;;
23543;SDS011;11950;51.230;4.012;2022-12-24T07:39:20;24.92;;;3.67;;
23543;SDS011;11950;51.230;4.012;2022-12-24T07:41:46;26.30;;;3.45;;
23543;SDS011;11950;51.230;4.012;2022-12-24T07:44:15;27.67;;;4.18;;
23543;SDS011;11950;51.230;4.012;2022-12-24T07:46:41;22.85;;;3.65;;
23543;SDS011;11950;51.230;4.012;2022-12-24T07:49:09;20.60;;;3.83;;
23543;SDS011;11950;51.230;4.012;2022-12-24T07:51:35;22.17;;;3.90;;
23543;SDS011;11950;51.230;4.012;2022-12-24T07:54:02;23.10;;;3.55;;
23543;SDS011;11950;51.230;4.012;2022-12-24T07:56:32;26.20;;;4.10;;
23543;SDS011;11950;51.230;4.012;2022-12-24T07:58:59;24.85;;;3.95;;
23543;SDS011;11950;51.230;4.012;2022-12-24T08:01:25;21.30;;;3.70;;
23543;SDS011;11950;51.230;4.012;2022-12-24T08:03:52;28.55;;;3.80;;
23543;SDS011;11950;51.230;4.012;2022-12-24T08:06:19;25.45;;;3.70;;
23543;SDS011;11950;51.230;4.012;2022-12-24T08:08:46;22.77;;;4.15;;
23543;SDS011;11950;51.230;4.012;2022-12-24T08:11:12;26.90;;;3.53;;
23543;SDS011;11950;51.230;4.012;2022-12-24T08:13:39;23.85;;;3.50;;
23543;SDS011;11950;51.230;4.012;2022-12-24T08:16:05;24.58;;;4.10;;
23543;SDS011;11950;51.230;4.012;2022-12-24T08:18:32;26.98;;;3.97;;
23543;SDS011;11950;51.230;4.012;2022-12-24T08:20:58;31.33;;;4.95;;
23543;SDS011;11950;51.230;4.012;2022-12-24T08:23:24;23.30;;;4.88;;
23543;SDS011;11950;51.230;4.012;2022-12-24T08:25:51;23.63;;;4.05;;
23543;SDS011;11950;51.230;4.012;2022-12-24T08:28:18;25.25;;;3.83;;
23543;SDS011;11950;51.230;4.012;2022-12-24T08:30:47;18.65;;;3.17;;
23543;SDS011;11950;51.230;4.012;2022-12-24T08:33:14;22.75;;;4.20;;
23543;SDS011;11950;51.230;4.012;2022-12-24T08:35:48;26.85;;;3.50;;
23543;SDS011;11950;51.230;4.012;2022-12-24T08:38:15;32.47;;;4.45;;
23543;SDS011;11950;51.230;4.012;2022-12-24T08:40:42;27.67;;;3.78;;
23543;SDS011;11950;51.230;4.012;2022-12-24T08:43:08;26.52;;;3.90;;
23543;SDS011;11950;51.230;4.012;2022-12-24T08:45:37;25.95;;;3.92;;
23543;SDS011;11950;51.230;4.012;2022-12-24T08:48:04;21.80;;;3.33;;
23543;SDS011;11950;51.230;4.012;2022-12-24T08:50:32;28.83;;;3.72;;
23543;SDS011;11950;51.230;4.012;2022-12-24T08:52:58;21.35;;;3.53;;
23543;SDS011;11950;51.230;4.012;2022-12-24T08:55:25;27.50;;;4.22;;
23543;SDS011;11950;51.230;4.012;2022-12-24T08:57:51;31.17;;;4.07;;
23543;SDS011;11950;51.230;4.012;2022-12-24T09:00:17;28.75;;;4.63;;
23543;SDS011;11950;51.230;4.012;2022-12-24T09:02:44;24.42;;;4.60;;
23543;SDS011;11950;51.230;4.012;2022-12-24T09:05:10;25.55;;;4.15;;
23543;SDS011;11950;51.230;4.012;2022-12-24T09:07:36;23.25;;;4.82;;
23543;SDS011;11950;51.230;4.012;2022-12-24T09:10:03;27.65;;;4.30;;
23543;SDS011;11950;51.230;4.012;2022-12-24T09:12:29;31.88;;;4.75;;
23543;SDS011;11950;51.230;4.012;2022-12-24T09:14:56;27.83;;;5.05;;
23543;SDS011;11950;51.230;4.012;2022-12-24T09:17:22;35.67;;;5.65;;
23543;SDS011;11950;51.230;4.012;2022-12-24T09:19:48;36.33;;;7.22;;
23543;SDS011;11950;51.230;4.012;2022-12-24T09:22:15;31.77;;;5.10;;
23543;SDS011;11950;51.230;4.012;2022-12-24T09:24:42;32.05;;;6.55;;
23543;SDS011;11950;51.230;4.012;2022-12-24T09:27:08;32.58;;;7.40;;
23543;SDS011;11950;51.230;4.012;2022-12-24T09:29:34;34.88;;;7.68;;
23543;SDS011;11950;51.230;4.012;2022-12-24T09:32:01;30.83;;;8.20;;
23543;SDS011;11950;51.230;4.012;2022-12-24T09:34:27;36.10;;;7.97;;
23543;SDS011;11950;51.230;4.012;2022-12-24T09:36:53;36.97;;;8.65;;
23543;SDS011;11950;51.230;4.012;2022-12-24T09:39:20;41.60;;;11.23;;
23543;SDS011;11950;51.230;4.012;2022-12-24T09:41:50;41.47;;;10.65;;
23543;SDS011;11950;51.230;4.012;2022-12-24T09:44:42;39.13;;;11.18;;
23543;SDS011;11950;51.230;4.012;2022-12-24T09:50:00;45.70;;;11.45;;
23543;SDS011;11950;51.230;4.012;2022-12-24T09:52:38;37.72;;;10.50;;
23543;SDS011;11950;51.230;4.012;2022-12-24T09:55:29;38.40;;;10.60;;
23543;SDS011;11950;51.230;4.012;2022-12-24T09:58:48;37.60;;;10.63;;
23543;SDS011;11950;51.230;4.012;2022-12-24T10:01:13;41.88;;;10.88;;
23543;SDS011;11950;51.230;4.012;2022-12-24T10:03:42;31.00;;;8.93;;
23543;SDS011;11950;51.230;4.012;2022-12-24T10:06:19;35.33;;;7.80;;
23543;SDS011;11950;51.230;4.012;2022-12-24T10:08:53;37.70;;;7.63;;
23543;SDS011;11950;51.230;4.012;2022-12-24T10:11:48;35.63;;;7.80;;
23543;SDS011;11950;51.230;4.012;2022-12-24T10:23:27;38.58;;;8.00;;
23543;SDS011;11950;51.230;4.012;2022-12-24T10:28:46;38.17;;;8.70;;
23543;SDS011;11950;51.230;4.012;2022-12-24T10:31:22;37.05;;;8.60;;
23543;SDS011;11950;51.230;4.012;2022-12-24T10:33:56;28.08;;;6.45;;
23543;SDS011;11950;51.230;4.012;2022-12-24T10:36:27;22.25;;;6.13;;
23543;SDS011;11950;51.230;4.012;2022-12-24T10:38:54;36.17;;;6.90;;
23543;SDS011;11950;51.230;4.012;2022-12-24T10:41:21;38.17;;;7.75;;
23543;SDS011;11950;51.230;4.012;2022-12-24T10:43:49;37.08;;;9.00;;
23543;SDS011;11950;51.230;4.012;2022-12-24T10:54:23;37.67;;;11.50;;
23543;SDS011;11950;51.230;4.012;2022-12-24T10:56:54;43.15;;;12.82;;
23543;SDS011;11950;51.230;4.012;2022-12-24T10:59:24;38.70;;;11.43;;
23543;SDS011;11950;51.230;4.012;2022-12-24T11:01:51;46.08;;;12.55;;
23543;SDS011;11950;51.230;4.012;2022-12-24T11:04:19;47.67;;;12.35;;
23543;SDS011;11950;51.230;4.012;2022-12-24T11:06:54;41.95;;;13.23;;
23543;SDS011;11950;51.230;4.012;2022-12-24T11:09:35;43.35;;;12.25;;
23543;SDS011;11950;51.230;4.012;2022-12-24T11:15:06;50.05;;;12.02;;
23543;SDS011;11950;51.230;4.012;2022-12-24T11:17:59;36.45;;;9.73;;
23543;SDS011;11950;51.230;4.012;2022-12-24T11:20:32;29.77;;;8.43;;
23543;SDS011;11950;51.230;4.012;2022-12-24T11:22:59;42.75;;;9.05;;
23543;SDS011;11950;51.230;4.012;2022-12-24T11:25:27;31.95;;;7.40;;
23543;SDS011;11950;51.230;4.012;2022-12-24T11:30:43;28.08;;;5.32;;
23543;SDS011;11950;51.230;4.012;2022-12-24T11:33:21;27.77;;;5.95;;
23543;SDS011;11950;51.230;4.012;2022-12-24T11:35:50;28.75;;;6.10;;
23543;SDS011;11950;51.230;4.012;2022-12-24T11:38:32;26.88;;;5.95;;
23543;SDS011;11950;51.230;4.012;2022-12-24T11:41:07;31.38;;;5.80;;
23543;SDS011;11950;51.230;4.012;2022-12-24T11:43:37;32.47;;;5.13;;
23543;SDS011;11950;51.230;4.012;2022-12-24T11:46:13;22.00;;;4.57;;
23543;SDS011;11950;51.230;4.012;2022-12-24T11:48:45;24.48;;;4.95;;
23543;SDS011;11950;51.230;4.012;2022-12-24T11:51:23;28.65;;;5.00;;
23543;SDS011;11950;51.230;4.012;2022-12-24T11:56:34;26.38;;;5.47;;
23543;SDS011;11950;51.230;4.012;2022-12-24T11:59:13;29.88;;;5.18;;
23543;SDS011;11950;51.230;4.012;2022-12-24T12:02:16;30.08;;;5.40;;
23543;SDS011;11950;51.230;4.012;2022-12-24T12:04:50;23.70;;;4.55;;
23543;SDS011;11950;51.230;4.012;2022-12-24T12:07:29;30.80;;;5.40;;
23543;SDS011;11950;51.230;4.012;2022-12-24T12:10:03;28.98;;;5.07;;
23543;SDS011;11950;51.230;4.012;2022-12-24T12:12:35;30.15;;;5.30;;
23543;SDS011;11950;51.230;4.012;2022-12-24T12:20:34;28.48;;;5.85;;
23543;SDS011;11950;51.230;4.012;2022-12-24T12:25:52;27.67;;;4.78;;
23543;SDS011;11950;51.230;4.012;2022-12-24T12:33:50;30.63;;;4.97;;
23543;SDS011;11950;51.230;4.012;2022-12-24T12:36:32;22.35;;;4.93;;
23543;SDS011;11950;51.230;4.012;2022-12-24T12:39:12;27.65;;;5.57;;
23543;SDS011;11950;51.230;4.012;2022-12-24T12:44:34;23.30;;;4.88;;
23543;SDS011;11950;51.230;4.012;2022-12-24T12:50:16;29.77;;;4.65;;
23543;SDS011;11950;51.230;4.012;2022-12-24T12:58:23;27.33;;;4.78;;
23543;SDS011;11950;51.230;4.012;2022-12-24T13:00:58;25.00;;;5.70;;
23543;SDS011;11950;51.230;4.012;2022-12-24T13:03:46;29.58;;;5.40;;
23543;SDS011;11950;51.230;4.012;2022-12-24T13:12:06;34.63;;;5.60;;
23543;SDS011;11950;51.230;4.012;2022-12-24T13:15:01;32.35;;;5.10;;
23543;SDS011;11950;51.230;4.012;2022-12-24T13:17:54;26.83;;;5.00;;
23543;SDS011;11950;51.230;4.012;2022-12-24T13:20:32;28.00;;;5.43;;
23543;SDS011;11950;51.230;4.012;2022-12-24T13:23:11;28.70;;;5.38;;
23543;SDS011;11950;51.230;4.012;2022-12-24T13:25:41;26.52;;;4.82;;
23543;SDS011;11950;51.230;4.012;2022-12-24T13:30:45;27.33;;;5.90;;
23543;SDS011;11950;51.230;4.012;2022-12-24T13:33:44;26.45;;;4.88;;
23543;SDS011;11950;51.230;4.012;2022-12-24T13:36:03;22.33;;;5.32;;
23543;SDS011;11950;51.230;4.012;2022-12-24T13:38:42;24.52;;;5.25;;
23543;SDS011;11950;51.230;4.012;2022-12-24T13:46:53;25.35;;;5.55;;
23543;SDS011;11950;51.230;4.012;2022-12-24T13:49:27;23.02;;;4.93;;
23543;SDS011;11950;51.230;4.012;2022-12-24T13:52:07;20.73;;;5.15;;
23543;SDS011;11950;51.230;4.012;2022-12-24T13:54:37;30.20;;;5.50;;
23543;SDS011;11950;51.230;4.012;2022-12-24T13:59:46;27.85;;;6.00;;
23543;SDS011;11950;51.230;4.012;2022-12-24T14:02:18;23.92;;;5.65;;
23543;SDS011;11950;51.230;4.012;2022-12-24T14:04:46;23.90;;;5.32;;
23543;SDS011;11950;51.230;4.012;2022-12-24T14:07:16;27.58;;;6.07;;
23543;SDS011;11950;51.230;4.012;2022-12-24T14:09:48;25.35;;;5.75;;
23543;SDS011;11950;51.230;4.012;2022-12-24T14:12:30;29.63;;;6.07;;
23543;SDS011;11950;51.230;4.012;2022-12-24T14:18:19;24.27;;;5.07;;
23543;SDS011;11950;51.230;4.012;2022-12-24T14:20:48;25.23;;;5.10;;
23543;SDS011;11950;51.230;4.012;2022-12-24T14:23:40;29.95;;;5.20;;
23543;SDS011;11950;51.230;4.012;2022-12-24T14:26:18;25.20;;;4.80;;
23543;SDS011;11950;51.230;4.012;2022-12-24T14:29:05;29.00;;;6.10;;
23543;SDS011;11950;51.230;4.012;2022-12-24T14:31:49;29.95;;;5.10;;
23543;SDS011;11950;51.230;4.012;2022-12-24T14:34:19;25.42;;;5.55;;
23543;SDS011;11950;51.230;4.012;2022-12-24T14:36:46;21.80;;;5.03;;
23543;SDS011;11950;51.230;4.012;2022-12-24T14:41:55;18.73;;;4.32;;
23543;SDS011;11950;51.230;4.012;2022-12-24T14:44:33;24.20;;;4.60;;
23543;SDS011;11950;51.230;4.012;2022-12-24T14:50:12;20.02;;;4.65;;
23543;SDS011;11950;51.230;4.012;2022-12-24T14:55:26;26.85;;;4.43;;
23543;SDS011;11950;51.230;4.012;2022-12-24T14:58:25;25.25;;;4.90;;
23543;SDS011;11950;51.230;4.012;2022-12-24T15:00:58;28.17;;;4.68;;
23543;SDS011;11950;51.230;4.012;2022-12-24T15:03:28;24.05;;;4.78;;
23543;SDS011;11950;51.230;4.012;2022-12-24T15:05:59;26.15;;;5.15;;
23543;SDS011;11950;51.230;4.012;2022-12-24T15:08:30;22.38;;;5.18;;
23543;SDS011;11950;51.230;4.012;2022-12-24T15:11:02;31.40;;;5.72;;
23543;SDS011;11950;51.230;4.012;2022-12-24T15:13:33;18.47;;;4.57;;
23543;SDS011;11950;51.230;4.012;2022-12-24T15:16:02;22.88;;;5.00;;
23543;SDS011;11950;51.230;4.012;2022-12-24T15:18:32;22.67;;;5.03;;
23543;SDS011;11950;51.230;4.012;2022-12-24T15:21:02;25.73;;;5.90;;
23543;SDS011;11950;51.230;4.012;2022-12-24T15:23:34;23.00;;;6.10;;
23543;SDS011;11950;51.230;4.012;2022-12-24T15:28:40;30.67;;;5.82;;
23543;SDS011;11950;51.230;4.012;2022-12-24T15:31:10;24.42;;;5.38;;
23543;SDS011;11950;51.230;4.012;2022-12-24T15:33:44;26.52;;;5.40;;
23543;SDS011;11950;51.230;4.012;2022-12-24T15:36:12;18.08;;;4.93;;
23543;SDS011;11950;51.230;4.012;2022-12-24T15:38:44;26.95;;;5.68;;
23543;SDS011;11950;51.230;4.012;2022-12-24T15:41:20;23.63;;;5.32;;
23543;SDS011;11950;51.230;4.012;2022-12-24T15:43:48;25.17;;;6.85;;
23543;SDS011;11950;51.230;4.012;2022-12-24T15:46:20;21.48;;;6.60;;
23543;SDS011;11950;51.230;4.012;2022-12-24T15:48:49;30.08;;;7.68;;
23543;SDS011;11950;51.230;4.012;2022-12-24T15:51:20;28.05;;;6.95;;
23543;SDS011;11950;51.230;4.012;2022-12-24T15:53:49;28.00;;;7.03;;
23543;SDS011;11950;51.230;4.012;2022-12-24T16:01:41;26.42;;;6.80;;
23543;SDS011;11950;51.230;4.012;2022-12-24T16:04:12;27.27;;;6.80;;
23543;SDS011;11950;51.230;4.012;2022-12-24T16:06:51;29.45;;;9.68;;
23543;SDS011;11950;51.230;4.012;2022-12-24T16:09:31;30.00;;;10.38;;
23543;SDS011;11950;51.230;4.012;2022-12-24T16:12:09;25.27;;;10.45;;
23543;SDS011;11950;51.230;4.012;2022-12-24T16:14:39;32.03;;;10.95;;
23543;SDS011;11950;51.230;4.012;2022-12-24T16:17:17;29.00;;;10.27;;
23543;SDS011;11950;51.230;4.012;2022-12-24T16:19:49;26.75;;;9.13;;
23543;SDS011;11950;51.230;4.012;2022-12-24T16:22:19;34.20;;;9.10;;
23543;SDS011;11950;51.230;4.012;2022-12-24T16:27:45;21.20;;;7.60;;
23543;SDS011;11950;51.230;4.012;2022-12-24T16:30:12;24.73;;;8.23;;
23543;SDS011;11950;51.230;4.012;2022-12-24T16:32:38;32.13;;;7.57;;
23543;SDS011;11950;51.230;4.012;2022-12-24T16:35:11;26.67;;;6.95;;
23543;SDS011;11950;51.230;4.012;2022-12-24T16:40:14;25.80;;;7.22;;
23543;SDS011;11950;51.230;4.012;2022-12-24T16:42:41;22.23;;;6.40;;
23543;SDS011;11950;51.230;4.012;2022-12-24T16:45:27;24.85;;;7.07;;
23543;SDS011;11950;51.230;4.012;2022-12-24T16:47:58;21.42;;;6.40;;
23543;SDS011;11950;51.230;4.012;2022-12-24T16:50:24;27.30;;;7.68;;
23543;SDS011;11950;51.230;4.012;2022-12-24T16:52:51;19.42;;;7.00;;
23543;SDS011;11950;51.230;4.012;2022-12-24T16:55:17;24.73;;;7.10;;
23543;SDS011;11950;51.230;4.012;2022-12-24T16:57:44;24.67;;;7.40;;